createdAt,value
2016-05-24T00:00:10.576Z,0
2016-05-24T00:02:10.660Z,0
2016-05-24T00:03:10.646Z,0
2016-05-24T00:04:39.040Z,0
2016-05-24T00:05:10.542Z,0
2016-05-24T00:06:24.920Z,0
2016-05-24T00:07:10.594Z,0
2016-05-24T00:08:10.612Z,0
2016-05-24T00:09:10.787Z,0
2016-05-24T00:10:24.993Z,0
2016-05-24T00:11:10.714Z,0
2016-05-24T00:12:25.061Z,0
2016-05-24T00:13:10.892Z,0
2016-05-24T00:14:10.925Z,0
2016-05-24T00:15:25.116Z,0
2016-05-24T00:16:10.791Z,0
2016-05-24T00:17:10.981Z,0
2016-05-24T00:18:10.999Z,0
2016-05-24T00:19:11.017Z,0
2016-05-24T00:20:11.052Z,0
2016-05-24T00:21:11.086Z,0
2016-05-24T00:22:11.119Z,0
2016-05-24T00:23:39.341Z,0
2016-05-24T00:24:10.999Z,0
2016-05-24T00:25:10.862Z,0
2016-05-24T00:26:11.035Z,0
2016-05-24T00:27:39.586Z,0
2016-05-24T00:28:11.245Z,0
2016-05-24T00:29:11.123Z,0
2016-05-24T00:30:25.500Z,0
2016-05-24T00:31:25.504Z,0
2016-05-24T00:32:11.193Z,0
2016-05-24T00:33:25.555Z,0
2016-05-24T00:34:11.245Z,0
2016-05-24T00:35:11.404Z,0
2016-05-24T00:36:11.297Z,0
2016-05-24T00:37:25.659Z,0
2016-05-24T00:38:11.490Z,0
2016-05-24T00:39:11.525Z,0
2016-05-24T00:41:25.748Z,0
2016-05-24T00:42:11.439Z,0
2016-05-24T00:43:25.800Z,0
2016-05-24T00:44:11.506Z,0
2016-05-24T00:45:11.525Z,0
2016-05-24T00:46:11.528Z,0
2016-05-24T00:47:25.889Z,0
2016-05-24T00:48:11.736Z,0
2016-05-24T00:49:11.755Z,0
2016-05-24T00:50:11.773Z,0
2016-05-24T00:51:25.994Z,0
2016-05-24T00:52:25.700Z,0
2016-05-24T00:53:26.046Z,0
2016-05-24T00:54:11.877Z,0
2016-05-24T00:55:26.083Z,0
2016-05-24T00:56:11.914Z,0
2016-05-24T00:57:11.948Z,0
2016-05-24T00:58:26.013Z,0
2016-05-24T00:59:11.999Z,0
2016-05-24T01:00:12.248Z,0
2016-05-24T01:01:11.935Z,0
2016-05-24T01:02:11.982Z,0
2016-05-24T01:03:26.357Z,0
2016-05-24T01:04:26.262Z,0
2016-05-24T01:05:11.974Z,0
2016-05-24T01:06:12.331Z,0
2016-05-24T01:07:12.358Z,0
2016-05-24T01:08:12.404Z,0
2016-05-24T01:09:12.276Z,0
2016-05-24T01:10:12.161Z,0
2016-05-24T01:11:12.495Z,0
2016-05-24T01:13:12.539Z,0
2016-05-24T01:14:12.562Z,0
2016-05-24T01:15:12.740Z,0
2016-05-24T01:16:12.493Z,0
2016-05-24T01:17:12.341Z,0
2016-05-24T01:18:26.860Z,0
2016-05-24T01:19:12.691Z,0
2016-05-24T01:20:12.711Z,0
2016-05-24T01:21:12.590Z,0
2016-05-24T01:22:12.623Z,0
2016-05-24T01:23:26.815Z,0
2016-05-24T01:24:12.817Z,0
2016-05-24T01:25:27.024Z,0
2016-05-24T01:26:12.854Z,0
2016-05-24T01:27:12.889Z,0
2016-05-24T01:29:12.801Z,0
2016-05-24T01:30:13.491Z,0
2016-05-24T01:31:12.995Z,0
2016-05-24T01:32:12.560Z,0
2016-05-24T01:33:12.891Z,0
2016-05-24T01:34:13.064Z,0
2016-05-24T01:35:13.083Z,0
2016-05-24T01:36:13.101Z,0
2016-05-24T01:37:13.120Z,0
2016-05-24T01:38:12.842Z,0
2016-05-24T01:39:13.188Z,0
2016-05-24T01:40:13.206Z,0
2016-05-24T01:41:13.240Z,0
2016-05-24T01:42:13.258Z,0
2016-05-24T01:43:13.276Z,0
2016-05-24T01:44:13.296Z,0
2016-05-24T01:45:27.516Z,0
2016-05-24T01:46:13.347Z,0
2016-05-24T01:47:27.568Z,0
2016-05-24T01:48:13.399Z,0
2016-05-24T01:49:13.262Z,0
2016-05-24T01:50:27.468Z,0
2016-05-24T01:51:27.673Z,0
2016-05-24T01:52:13.488Z,0
2016-05-24T01:53:13.522Z,0
2016-05-24T01:54:13.556Z,0
2016-05-24T01:55:13.575Z,0
2016-05-24T01:56:13.593Z,0
2016-05-24T01:57:13.626Z,0
2016-05-24T01:58:13.333Z,0
2016-05-24T01:59:14.007Z,0
2016-05-24T02:00:13.714Z,0
2016-05-24T02:01:27.903Z,0
2016-05-24T02:02:13.750Z,0
2016-05-24T02:05:13.819Z,0
2016-05-24T02:06:27.870Z,0
2016-05-24T02:07:13.858Z,0
2016-05-24T02:08:13.891Z,0
2016-05-24T02:09:13.908Z,0
2016-05-24T02:10:13.786Z,0
2016-05-24T02:11:13.649Z,0
2016-05-24T02:12:13.996Z,0
2016-05-24T02:13:13.999Z,0
2016-05-24T02:14:13.891Z,0
2016-05-24T02:15:28.222Z,0
2016-05-24T02:16:28.256Z,0
2016-05-24T02:17:28.274Z,0
2016-05-24T02:18:14.152Z,0
2016-05-24T02:19:28.326Z,0
2016-05-24T02:20:14.018Z,0
2016-05-24T02:21:14.191Z,0
2016-05-24T02:22:28.397Z,0
2016-05-24T02:23:13.775Z,0
2016-05-24T02:24:13.965Z,0
2016-05-24T02:25:14.140Z,0
2016-05-24T02:26:14.314Z,0
2016-05-24T02:27:28.520Z,0
2016-05-24T02:28:28.554Z,0
2016-05-24T02:29:14.385Z,0
2016-05-24T02:30:42.778Z,0
2016-05-24T02:31:14.297Z,0
2016-05-24T02:32:14.455Z,0
2016-05-24T02:33:14.333Z,0
2016-05-24T02:34:14.382Z,0
2016-05-24T02:35:14.386Z,0
2016-05-24T02:36:14.560Z,0
2016-05-24T02:37:14.594Z,0
2016-05-24T02:38:28.643Z,0
2016-05-24T02:39:14.474Z,0
2016-05-24T02:40:28.836Z,0
2016-05-24T02:41:14.527Z,0
2016-05-24T02:42:28.889Z,0
2016-05-24T02:43:14.579Z,0
2016-05-24T02:44:28.784Z,0
2016-05-24T02:45:14.490Z,0
2016-05-24T02:46:14.805Z,5
2016-05-24T02:47:14.949Z,5
2016-05-24T02:48:14.749Z,5
2016-05-24T02:49:14.970Z,5
2016-05-24T02:50:29.129Z,5
2016-05-24T02:51:14.771Z,5
2016-05-24T02:52:14.728Z,5
2016-05-24T02:53:28.996Z,5
2016-05-24T02:54:14.921Z,10
2016-05-24T02:55:14.704Z,10
2016-05-24T02:56:15.035Z,10
2016-05-24T02:57:15.070Z,10
2016-05-24T02:58:15.104Z,10
2016-05-24T02:59:29.309Z,10
2016-05-24T03:00:15.140Z,10
2016-05-24T03:01:15.189Z,15
2016-05-24T03:02:15.176Z,15
2016-05-24T03:04:29.417Z,15
2016-05-24T03:05:15.263Z,15
2016-05-24T03:06:14.969Z,20
2016-05-24T03:08:15.177Z,20
2016-05-24T03:09:15.195Z,20
2016-05-24T03:10:15.230Z,20
2016-05-24T03:12:15.422Z,25
2016-05-24T03:13:15.455Z,25
2016-05-24T03:14:15.474Z,30
2016-05-24T03:15:30.321Z,30
2016-05-24T03:16:15.371Z,30
2016-05-24T03:17:15.389Z,30
2016-05-24T03:18:15.407Z,30
2016-05-24T03:19:15.596Z,30
2016-05-24T03:20:15.490Z,30
2016-05-24T03:21:15.634Z,35
2016-05-24T03:22:15.527Z,35
2016-05-24T03:23:15.702Z,35
2016-05-24T03:24:15.720Z,40
2016-05-24T03:25:29.910Z,40
2016-05-24T03:26:15.757Z,40
2016-05-24T03:27:15.634Z,40
2016-05-24T03:28:15.653Z,45
2016-05-24T03:29:15.828Z,45
2016-05-24T03:30:30.048Z,50
2016-05-24T03:33:15.916Z,55
2016-05-24T03:34:15.809Z,60
2016-05-24T03:35:30.156Z,60
2016-05-24T03:36:30.017Z,65
2016-05-24T03:37:16.021Z,65
2016-05-24T03:39:16.073Z,70
2016-05-24T03:40:16.091Z,75
2016-05-24T03:41:44.485Z,75
2016-05-24T03:42:16.158Z,80
2016-05-24T03:43:15.850Z,90
2016-05-24T03:44:30.383Z,90
2016-05-24T03:45:16.105Z,90
2016-05-24T03:47:16.266Z,100
2016-05-24T03:48:16.159Z,100
2016-05-24T03:49:16.319Z,100
2016-05-24T03:50:16.337Z,105
2016-05-24T03:51:16.371Z,105
2016-05-24T03:52:44.748Z,100
2016-05-24T03:53:16.424Z,105
2016-05-24T03:54:16.457Z,105
2016-05-24T03:55:16.460Z,110
2016-05-24T03:57:30.684Z,115
2016-05-24T03:58:30.562Z,115
2016-05-24T03:59:16.548Z,115
2016-05-24T04:00:17.098Z,120
2016-05-24T04:01:16.617Z,125
2016-05-24T04:02:16.478Z,125
2016-05-24T04:03:16.653Z,135
2016-05-24T04:04:45.047Z,135
2016-05-24T04:05:16.565Z,135
2016-05-24T04:06:16.739Z,135
2016-05-24T04:07:30.930Z,140
2016-05-24T04:08:16.775Z,140
2016-05-24T04:09:16.653Z,155
2016-05-24T04:10:16.672Z,185
2016-05-24T04:11:31.034Z,205
2016-05-24T04:12:16.896Z,195
2016-05-24T04:13:31.086Z,175
2016-05-24T04:14:16.932Z,175
2016-05-24T04:15:17.201Z,165
2016-05-24T04:17:17.003Z,165
2016-05-24T04:18:17.022Z,170
2016-05-24T04:19:17.040Z,170
2016-05-24T04:20:16.776Z,175
2016-05-24T04:21:17.093Z,175
2016-05-24T04:22:17.126Z,185
2016-05-24T04:23:16.988Z,190
2016-05-24T04:24:17.194Z,220
2016-05-24T04:25:17.040Z,225
2016-05-24T04:26:31.402Z,205
2016-05-24T04:27:17.248Z,205
2016-05-24T04:28:31.455Z,200
2016-05-24T04:29:17.301Z,200
2016-05-24T04:30:17.835Z,200
2016-05-24T04:31:17.197Z,205
2016-05-24T04:32:31.403Z,210
2016-05-24T04:33:17.093Z,210
2016-05-24T04:34:17.268Z,215
2016-05-24T04:35:17.473Z,275
2016-05-24T04:37:31.541Z,415
2016-05-24T04:38:17.528Z,355
2016-05-24T04:39:45.906Z,510
2016-05-24T04:40:17.581Z,570
2016-05-24T04:41:17.599Z,575
2016-05-24T04:42:17.633Z,565
2016-05-24T04:43:17.651Z,610
2016-05-24T04:44:17.358Z,635
2016-05-24T04:45:17.985Z,565
2016-05-24T04:46:17.566Z,625
2016-05-24T04:47:17.755Z,630
2016-05-24T04:48:17.618Z,635
2016-05-24T04:49:17.807Z,595
2016-05-24T04:50:17.842Z,610
2016-05-24T04:51:17.861Z,595
2016-05-24T04:52:17.894Z,625
2016-05-24T04:53:17.756Z,665
2016-05-24T04:54:17.837Z,655
2016-05-24T04:55:17.824Z,650
2016-05-24T04:56:32.187Z,655
2016-05-24T04:57:18.018Z,665
2016-05-24T04:58:18.051Z,635
2016-05-24T04:59:18.084Z,685
2016-05-24T05:00:32.510Z,615
2016-05-24T05:01:18.137Z,485
2016-05-24T05:02:18.171Z,610
2016-05-24T05:03:18.049Z,490
2016-05-24T05:04:32.254Z,430
2016-05-24T05:05:18.117Z,715
2016-05-24T05:06:18.291Z,740
2016-05-24T05:08:18.187Z,700
2016-05-24T05:09:18.378Z,675
2016-05-24T05:10:18.255Z,605
2016-05-24T05:11:18.430Z,595
2016-05-24T05:12:32.495Z,680
2016-05-24T05:13:18.498Z,650
2016-05-24T05:14:18.531Z,705
2016-05-24T05:15:18.691Z,740
2016-05-24T05:16:32.771Z,740
2016-05-24T05:17:18.618Z,700
2016-05-24T05:18:18.652Z,405
2016-05-24T05:19:32.717Z,830
2016-05-24T05:20:18.563Z,710
2016-05-24T05:21:18.582Z,710
2016-05-24T05:23:18.806Z,770
2016-05-24T05:24:18.823Z,755
2016-05-24T05:25:33.046Z,820
2016-05-24T05:26:18.893Z,810
2016-05-24T05:27:18.770Z,820
2016-05-24T05:28:18.959Z,305
2016-05-24T05:29:18.821Z,685
2016-05-24T05:30:19.981Z,325
2016-05-24T05:31:18.890Z,400
2016-05-24T05:32:33.267Z,290
2016-05-24T05:33:33.146Z,295
2016-05-24T05:34:33.179Z,320
2016-05-24T05:35:19.181Z,305
2016-05-24T05:36:19.216Z,310
2016-05-24T05:37:19.078Z,345
2016-05-24T05:38:33.455Z,685
2016-05-24T05:39:33.489Z,355
2016-05-24T05:40:19.336Z,235
2016-05-24T05:41:19.198Z,210
2016-05-24T05:42:19.231Z,215
2016-05-24T05:43:19.422Z,245
2016-05-24T05:44:19.300Z,530
2016-05-24T05:45:19.818Z,240
2016-05-24T05:46:19.196Z,175
2016-05-24T05:47:19.557Z,150
2016-05-24T05:48:33.435Z,140
2016-05-24T05:49:19.283Z,145
2016-05-24T05:50:19.628Z,135
2016-05-24T05:51:19.663Z,120
2016-05-24T05:52:19.696Z,120
2016-05-24T05:53:19.402Z,120
2016-05-24T05:54:33.607Z,125
2016-05-24T05:55:19.782Z,125
2016-05-24T05:56:19.644Z,120
2016-05-24T05:57:19.819Z,115
2016-05-24T05:58:34.040Z,120
2016-05-24T05:59:19.887Z,120
2016-05-24T06:00:20.249Z,125
2016-05-24T06:01:19.798Z,130
2016-05-24T06:02:19.817Z,140
2016-05-24T06:03:48.366Z,140
2016-05-24T06:04:20.041Z,145
2016-05-24T06:06:20.078Z,150
2016-05-24T06:07:19.970Z,140
2016-05-24T06:08:19.973Z,130
2016-05-24T06:09:19.850Z,120
2016-05-24T06:10:19.869Z,130
2016-05-24T06:11:34.404Z,135
2016-05-24T06:12:20.234Z,140
2016-05-24T06:13:36.018Z,160
2016-05-24T06:14:35.193Z,170
2016-05-24T06:16:24.807Z,160
2016-05-24T06:17:23.904Z,170
2016-05-24T06:18:20.407Z,185
2016-05-24T06:19:20.441Z,210
2016-05-24T06:21:20.336Z,230
2016-05-24T06:22:34.699Z,180
2016-05-24T06:23:34.591Z,150
2016-05-24T06:24:20.407Z,140
2016-05-24T06:25:20.441Z,115
2016-05-24T06:26:20.663Z,105
2016-05-24T06:27:20.352Z,95
2016-05-24T06:28:20.684Z,85
2016-05-24T06:29:20.702Z,80
2016-05-24T06:30:20.314Z,75
2016-05-24T06:31:20.754Z,75
2016-05-24T06:32:34.976Z,75
2016-05-24T06:33:20.682Z,75
2016-05-24T06:34:20.840Z,80
2016-05-24T06:35:35.046Z,85
2016-05-24T06:36:20.737Z,85
2016-05-24T06:37:20.614Z,90
2016-05-24T06:38:20.789Z,95
2016-05-24T06:39:20.823Z,95
2016-05-24T06:40:21.013Z,100
2016-05-24T06:41:35.219Z,105
2016-05-24T06:42:21.064Z,110
2016-05-24T06:43:21.099Z,120
2016-05-24T06:44:21.102Z,130
2016-05-24T06:45:35.855Z,140
2016-05-24T06:46:35.342Z,140
2016-05-24T06:47:35.375Z,145
2016-05-24T06:48:21.097Z,145
2016-05-24T06:49:21.256Z,150
2016-05-24T06:50:21.275Z,160
2016-05-24T06:51:35.496Z,170
2016-05-24T06:52:21.327Z,170
2016-05-24T06:53:21.344Z,165
2016-05-24T06:54:35.629Z,165
2016-05-24T06:55:21.428Z,170
2016-05-24T06:56:35.602Z,180
2016-05-24T06:57:21.449Z,185
2016-05-24T06:58:21.749Z,180
2016-05-24T06:59:21.518Z,175
2016-05-24T07:00:22.271Z,170
2016-05-24T07:01:21.398Z,165
2016-05-24T07:02:49.947Z,160
2016-05-24T07:03:21.481Z,165
2016-05-24T07:04:21.327Z,170
2016-05-24T07:05:21.674Z,165
2016-05-24T07:06:21.536Z,180
2016-05-24T07:08:35.760Z,150
2016-05-24T07:09:21.795Z,155
2016-05-24T07:10:21.797Z,165
2016-05-24T07:11:21.675Z,185
2016-05-24T07:12:21.724Z,215
2016-05-24T07:13:36.071Z,270
2016-05-24T07:15:22.403Z,410
2016-05-24T07:16:36.141Z,220
2016-05-24T07:17:21.984Z,195
2016-05-24T07:18:36.193Z,200
2016-05-24T07:19:36.055Z,215
2016-05-24T07:20:22.071Z,205
2016-05-24T07:21:36.264Z,170
2016-05-24T07:22:36.391Z,155
2016-05-24T07:23:50.347Z,145
2016-05-24T07:24:22.160Z,140
2016-05-24T07:27:22.293Z,135
2016-05-24T07:28:22.171Z,135
2016-05-24T07:29:36.613Z,145
2016-05-24T07:30:36.866Z,165
2016-05-24T07:32:22.384Z,195
2016-05-24T07:35:22.299Z,445
2016-05-24T07:36:22.489Z,230
2016-05-24T07:37:22.507Z,210
2016-05-24T07:38:36.576Z,190
2016-05-24T07:39:22.669Z,185
2016-05-24T07:40:36.721Z,160
2016-05-24T07:42:22.645Z,130
2016-05-24T07:43:22.679Z,115
2016-05-24T07:44:22.542Z,105
2016-05-24T07:45:22.950Z,105
2016-05-24T07:46:22.735Z,105
2016-05-24T07:47:22.847Z,110
2016-05-24T07:48:22.802Z,120
2016-05-24T07:49:51.198Z,135
2016-05-24T07:50:26.686Z,140
2016-05-24T07:51:37.095Z,140
2016-05-24T07:52:22.908Z,145
2016-05-24T07:53:22.785Z,145
2016-05-24T07:54:23.006Z,150
2016-05-24T07:55:25.324Z,165
2016-05-24T07:56:22.855Z,165
2016-05-24T07:58:23.064Z,155
2016-05-24T07:59:23.097Z,160
2016-05-24T08:00:25.431Z,175
2016-05-24T08:01:22.993Z,180
2016-05-24T08:02:23.027Z,185
2016-05-24T08:03:23.108Z,190
2016-05-24T08:04:23.080Z,190
2016-05-24T08:05:25.320Z,205
2016-05-24T08:06:23.288Z,210
2016-05-24T08:07:23.057Z,200
2016-05-24T08:08:23.184Z,190
2016-05-24T08:09:23.203Z,190
2016-05-24T08:10:37.584Z,190
2016-05-24T08:11:23.412Z,190
2016-05-24T08:13:23.479Z,190
2016-05-24T08:15:26.643Z,200
2016-05-24T08:16:23.550Z,210
2016-05-24T08:17:23.584Z,225
2016-05-24T08:18:23.603Z,250
2016-05-24T08:19:23.480Z,245
2016-05-24T08:20:26.203Z,245
2016-05-24T08:21:37.864Z,255
2016-05-24T08:22:23.582Z,355
2016-05-24T08:23:37.915Z,265
2016-05-24T08:24:23.697Z,260
2016-05-24T08:25:40.202Z,300
2016-05-24T08:27:23.704Z,340
2016-05-24T08:28:23.707Z,345
2016-05-24T08:29:23.913Z,305
2016-05-24T08:30:24.150Z,245
2016-05-24T08:31:38.140Z,200
2016-05-24T08:32:23.983Z,185
2016-05-24T08:33:23.846Z,175
2016-05-24T08:34:24.082Z,170
2016-05-24T08:35:26.273Z,170
2016-05-24T08:36:24.088Z,180
2016-05-24T08:37:23.966Z,190
2016-05-24T08:38:23.984Z,205
2016-05-24T08:39:24.159Z,210
2016-05-24T08:40:25.145Z,210
2016-05-24T08:41:38.401Z,220
2016-05-24T08:42:38.357Z,240
2016-05-24T08:43:24.279Z,260
2016-05-24T08:44:38.581Z,305
2016-05-24T08:45:28.099Z,280
2016-05-24T08:46:38.398Z,250
2016-05-24T08:47:24.367Z,250
2016-05-24T08:48:24.401Z,255
2016-05-24T08:49:24.435Z,235
2016-05-24T08:50:25.875Z,175
2016-05-24T08:51:24.395Z,145
2016-05-24T08:52:24.522Z,135
2016-05-24T08:53:24.617Z,145
2016-05-24T08:54:24.480Z,145
2016-05-24T08:55:25.092Z,135
2016-05-24T08:56:24.625Z,125
2016-05-24T08:57:24.661Z,120
2016-05-24T08:58:38.713Z,120
2016-05-24T09:00:29.827Z,125
2016-05-24T09:01:24.905Z,130
2016-05-24T09:02:24.705Z,140
2016-05-24T09:03:24.832Z,140
2016-05-24T09:04:39.025Z,140
2016-05-24T09:05:26.604Z,135
2016-05-24T09:06:24.981Z,130
2016-05-24T09:07:24.780Z,135
2016-05-24T09:08:24.987Z,150
2016-05-24T09:09:24.833Z,155
2016-05-24T09:10:27.663Z,160
2016-05-24T09:11:24.870Z,160
2016-05-24T09:12:39.094Z,165
2016-05-24T09:13:39.253Z,175
2016-05-24T09:14:39.334Z,170
2016-05-24T09:15:43.415Z,160
2016-05-24T09:16:24.852Z,150
2016-05-24T09:17:25.182Z,145
2016-05-24T09:18:24.904Z,140
2016-05-24T09:19:25.250Z,140
2016-05-24T09:20:27.440Z,140
2016-05-24T09:21:25.381Z,145
2016-05-24T09:23:25.198Z,140
2016-05-24T09:24:25.389Z,140
2016-05-24T09:25:26.861Z,145
2016-05-24T09:26:25.270Z,145
2016-05-24T09:27:25.444Z,140
2016-05-24T09:28:25.477Z,130
2016-05-24T09:29:39.780Z,120
2016-05-24T09:30:28.905Z,115
2016-05-24T09:31:25.564Z,105
2016-05-24T09:32:25.583Z,100
2016-05-24T09:33:39.791Z,100
2016-05-24T09:34:25.760Z,100
2016-05-24T09:35:27.044Z,95
2016-05-24T09:36:39.860Z,95
2016-05-24T09:37:25.767Z,95
2016-05-24T09:38:25.786Z,95
2016-05-24T09:40:27.729Z,85
2016-05-24T09:41:25.669Z,85
2016-05-24T09:42:25.687Z,85
2016-05-24T09:43:25.721Z,90
2016-05-24T09:44:25.896Z,90
2016-05-24T09:45:46.370Z,95
2016-05-24T09:47:26.012Z,95
2016-05-24T09:48:40.035Z,95
2016-05-24T09:49:26.035Z,100
2016-05-24T09:50:28.005Z,100
2016-05-24T09:51:25.993Z,105
2016-05-24T09:52:25.823Z,110
2016-05-24T09:53:25.983Z,110
2016-05-24T09:54:40.347Z,120
2016-05-24T09:55:40.522Z,125
2016-05-24T09:56:25.944Z,120
2016-05-24T09:57:40.417Z,120
2016-05-24T09:58:26.261Z,115
2016-05-24T09:59:26.295Z,120
2016-05-24T10:00:28.861Z,115
2016-05-24T10:01:40.600Z,115
2016-05-24T10:02:26.288Z,115
2016-05-24T10:03:26.385Z,120
2016-05-24T10:04:26.122Z,125
2016-05-24T10:05:28.124Z,135
2016-05-24T10:06:26.470Z,145
2016-05-24T10:07:26.502Z,150
2016-05-24T10:08:40.754Z,155
2016-05-24T10:09:26.614Z,160
2016-05-24T10:10:42.320Z,165
2016-05-24T10:11:26.726Z,160
2016-05-24T10:12:26.741Z,165
2016-05-24T10:13:26.471Z,165
2016-05-24T10:14:26.873Z,165
2016-05-24T10:15:28.305Z,170
2016-05-24T10:16:26.957Z,175
2016-05-24T10:17:55.126Z,175
2016-05-24T10:18:27.064Z,175
2016-05-24T10:19:26.819Z,170
2016-05-24T10:20:28.090Z,170
2016-05-24T10:21:26.877Z,160
2016-05-24T10:22:27.053Z,145
2016-05-24T10:23:27.104Z,135
2016-05-24T10:24:26.951Z,130
2016-05-24T10:25:28.439Z,125
2016-05-24T10:26:41.353Z,125
2016-05-24T10:27:27.259Z,125
2016-05-24T10:28:27.215Z,125
2016-05-24T10:29:27.078Z,125
2016-05-24T10:30:29.362Z,125
2016-05-24T10:31:27.396Z,130
2016-05-24T10:33:41.545Z,140
2016-05-24T10:34:27.232Z,140
2016-05-24T10:35:42.347Z,140
2016-05-24T10:36:27.112Z,140
2016-05-24T10:37:28.881Z,145
2016-05-24T10:38:27.478Z,145
2016-05-24T10:39:27.512Z,145
2016-05-24T10:40:29.201Z,155
2016-05-24T10:41:27.408Z,160
2016-05-24T10:42:41.772Z,160
2016-05-24T10:43:27.319Z,165
2016-05-24T10:44:27.322Z,170
2016-05-24T10:45:30.419Z,170
2016-05-24T10:46:27.686Z,170
2016-05-24T10:47:28.517Z,170
2016-05-24T10:48:41.945Z,175
2016-05-24T10:49:27.773Z,175
2016-05-24T10:50:30.010Z,175
2016-05-24T10:51:27.653Z,175
2016-05-24T10:52:29.125Z,175
2016-05-24T10:53:27.721Z,165
2016-05-24T10:54:27.427Z,160
2016-05-24T10:55:29.945Z,155
2016-05-24T10:56:27.791Z,160
2016-05-24T10:57:27.794Z,170
2016-05-24T10:58:42.206Z,185
2016-05-24T11:00:29.959Z,190
2016-05-24T11:01:28.070Z,190
2016-05-24T11:02:29.449Z,190
2016-05-24T11:03:28.232Z,190
2016-05-24T11:04:42.457Z,180
2016-05-24T11:05:29.285Z,180
2016-05-24T11:06:42.415Z,180
2016-05-24T11:07:43.965Z,170
2016-05-24T11:08:28.277Z,165
2016-05-24T11:09:42.329Z,165
2016-05-24T11:10:28.314Z,165
2016-05-24T11:12:42.556Z,155
2016-05-24T11:13:28.400Z,155
2016-05-24T11:14:42.515Z,155
2016-05-24T11:15:43.408Z,165
2016-05-24T11:16:28.423Z,170
2016-05-24T11:17:29.160Z,185
2016-05-24T11:18:28.539Z,200
2016-05-24T11:20:42.453Z,255
2016-05-24T11:21:28.312Z,290
2016-05-24T11:22:29.908Z,325
2016-05-24T11:23:28.630Z,285
2016-05-24T11:24:28.383Z,280
2016-05-24T11:25:28.572Z,270
2016-05-24T11:27:42.799Z,255
2016-05-24T11:28:42.974Z,250
2016-05-24T11:29:28.927Z,250
2016-05-24T11:30:28.899Z,260
2016-05-24T11:31:28.886Z,265
2016-05-24T11:32:42.782Z,270
2016-05-24T11:33:43.113Z,270
2016-05-24T11:34:28.816Z,270
2016-05-24T11:35:28.991Z,280
2016-05-24T11:36:43.198Z,295
2016-05-24T11:37:29.136Z,300
2016-05-24T11:38:28.904Z,300
2016-05-24T11:39:28.782Z,305
2016-05-24T11:40:29.192Z,300
2016-05-24T11:41:29.209Z,300
2016-05-24T11:42:43.387Z,300
2016-05-24T11:43:29.153Z,295
2016-05-24T11:44:29.092Z,265
2016-05-24T11:46:29.191Z,300
2016-05-24T11:47:29.381Z,280
2016-05-24T11:48:43.528Z,315
2016-05-24T11:49:29.169Z,290
2016-05-24T11:50:29.390Z,300
2016-05-24T11:52:43.633Z,295
2016-05-24T11:53:29.477Z,300
2016-05-24T11:54:29.558Z,295
2016-05-24T11:55:29.482Z,280
2016-05-24T11:56:29.563Z,275
2016-05-24T11:57:29.580Z,275
2016-05-24T11:58:43.805Z,270
2016-05-24T11:59:43.838Z,275
2016-05-24T12:00:43.779Z,270
2016-05-24T12:01:29.544Z,260
2016-05-24T12:02:43.909Z,255
2016-05-24T12:03:29.784Z,260
2016-05-24T12:04:29.787Z,265
2016-05-24T12:05:29.680Z,275
2016-05-24T12:06:58.154Z,330
2016-05-24T12:07:29.779Z,320
2016-05-24T12:08:44.129Z,315
2016-05-24T12:09:29.770Z,285
2016-05-24T12:10:29.788Z,290
2016-05-24T12:11:29.978Z,295
2016-05-24T12:12:44.186Z,265
2016-05-24T12:13:30.108Z,280
2016-05-24T12:14:30.064Z,290
2016-05-24T12:15:44.381Z,285
2016-05-24T12:16:29.819Z,250
2016-05-24T12:17:29.994Z,255
2016-05-24T12:18:30.200Z,260
2016-05-24T12:19:44.236Z,215
2016-05-24T12:20:30.314Z,205
2016-05-24T12:21:30.254Z,210
2016-05-24T12:22:30.289Z,215
2016-05-24T12:23:44.341Z,220
2016-05-24T12:24:30.419Z,235
2016-05-24T12:25:30.062Z,265
2016-05-24T12:26:30.237Z,250
2016-05-24T12:27:30.271Z,285
2016-05-24T12:28:30.460Z,280
2016-05-24T12:29:30.432Z,220
2016-05-24T12:31:30.454Z,285
2016-05-24T12:32:30.519Z,265
2016-05-24T12:33:30.271Z,230
2016-05-24T12:34:30.665Z,235
2016-05-24T12:35:30.652Z,265
2016-05-24T12:36:30.577Z,245
2016-05-24T12:37:30.641Z,265
2016-05-24T12:38:30.598Z,270
2016-05-24T12:39:30.818Z,280
2016-05-24T12:40:30.665Z,280
2016-05-24T12:41:30.824Z,300
2016-05-24T12:42:30.529Z,310
2016-05-24T12:43:30.923Z,305
2016-05-24T12:44:30.425Z,295
2016-05-24T12:45:30.803Z,290
2016-05-24T12:46:30.807Z,250
2016-05-24T12:47:45.155Z,265
2016-05-24T12:48:30.702Z,265
2016-05-24T12:49:31.033Z,300
2016-05-24T12:50:30.926Z,305
2016-05-24T12:51:31.086Z,305
2016-05-24T12:52:31.120Z,260
2016-05-24T12:53:31.138Z,230
2016-05-24T12:54:31.172Z,215
2016-05-24T12:55:45.396Z,205
2016-05-24T12:56:31.224Z,225
2016-05-24T12:57:31.258Z,240
2016-05-24T12:58:31.276Z,255
2016-05-24T12:59:31.466Z,210
2016-05-24T13:02:45.430Z,205
2016-05-24T13:03:31.430Z,245
2016-05-24T13:04:45.498Z,220
2016-05-24T13:05:45.423Z,195
2016-05-24T13:06:31.719Z,220
2016-05-24T13:07:45.412Z,240
2016-05-24T13:08:31.412Z,240
2016-05-24T13:09:46.183Z,265
2016-05-24T13:10:31.620Z,265
2016-05-24T13:11:45.673Z,265
2016-05-24T13:12:31.673Z,255
2016-05-24T13:13:31.551Z,195
2016-05-24T13:14:32.991Z,195
2016-05-24T13:15:46.278Z,210
2016-05-24T13:16:31.825Z,215
2016-05-24T13:17:31.827Z,185
2016-05-24T13:18:46.114Z,240
2016-05-24T13:19:32.879Z,225
2016-05-24T13:20:31.757Z,235
2016-05-24T13:21:31.947Z,235
2016-05-24T13:22:31.841Z,230
2016-05-24T13:23:31.999Z,245
2016-05-24T13:24:32.627Z,235
2016-05-24T13:25:32.130Z,240
2016-05-24T13:26:32.069Z,235
2016-05-24T13:27:46.279Z,205
2016-05-24T13:28:32.123Z,195
2016-05-24T13:29:46.175Z,175
2016-05-24T13:30:46.568Z,165
2016-05-24T13:31:32.224Z,170
2016-05-24T13:32:32.243Z,205
2016-05-24T13:33:32.121Z,230
2016-05-24T13:34:33.169Z,225
2016-05-24T13:35:32.329Z,225
2016-05-24T13:36:32.347Z,215
2016-05-24T13:37:32.474Z,170
2016-05-24T13:38:32.415Z,220
2016-05-24T13:39:33.480Z,230
2016-05-24T13:40:32.154Z,215
2016-05-24T13:41:32.345Z,225
2016-05-24T13:42:46.693Z,235
2016-05-24T13:43:46.571Z,235
2016-05-24T13:44:32.634Z,215
2016-05-24T13:45:32.667Z,220
2016-05-24T13:46:32.639Z,230
2016-05-24T13:47:32.659Z,225
2016-05-24T13:48:32.645Z,215
2016-05-24T13:49:46.884Z,180
2016-05-24T13:50:32.759Z,170
2016-05-24T13:51:32.747Z,210
2016-05-24T13:52:32.796Z,185
2016-05-24T13:53:32.814Z,220
2016-05-24T13:54:32.692Z,220
2016-05-24T13:55:32.711Z,220
2016-05-24T13:56:32.822Z,220
2016-05-24T13:57:32.950Z,210
2016-05-24T13:58:47.143Z,205
2016-05-24T13:59:47.021Z,180
2016-05-24T14:00:33.068Z,190
2016-05-24T14:01:33.039Z,195
2016-05-24T14:02:33.074Z,225
2016-05-24T14:03:33.091Z,210
2016-05-24T14:04:47.160Z,210
2016-05-24T14:05:33.097Z,220
2016-05-24T14:06:33.178Z,215
2016-05-24T14:07:33.321Z,220
2016-05-24T14:08:47.420Z,220
2016-05-24T14:09:33.373Z,210
2016-05-24T14:10:33.345Z,210
2016-05-24T14:11:33.269Z,210
2016-05-24T14:12:33.053Z,210
2016-05-24T14:13:33.368Z,180
2016-05-24T14:14:33.245Z,175
2016-05-24T14:15:33.342Z,180
2016-05-24T14:16:33.454Z,180
2016-05-24T14:18:33.523Z,185
2016-05-24T14:19:33.540Z,180
2016-05-24T14:20:33.575Z,170
2016-05-24T14:21:33.593Z,160
2016-05-24T14:23:33.645Z,165
2016-05-24T14:24:33.742Z,170
2016-05-24T14:25:33.807Z,220
2016-05-24T14:27:02.109Z,170
2016-05-24T14:27:33.609Z,170
2016-05-24T14:28:47.974Z,165
2016-05-24T14:29:33.849Z,165
2016-05-24T14:30:48.166Z,175
2016-05-24T14:31:33.869Z,175
2016-05-24T14:32:33.747Z,185
2016-05-24T14:33:48.112Z,185
2016-05-24T14:35:34.006Z,175
2016-05-24T14:36:34.008Z,175
2016-05-24T14:37:34.042Z,170
2016-05-24T14:38:34.077Z,170
2016-05-24T14:39:48.284Z,170
2016-05-24T14:40:48.007Z,165
2016-05-24T14:41:48.321Z,165
2016-05-24T14:42:34.196Z,160
2016-05-24T14:43:48.374Z,150
2016-05-24T14:45:48.520Z,140
2016-05-24T14:46:48.475Z,145
2016-05-24T14:47:34.147Z,150
2016-05-24T14:48:34.353Z,160
2016-05-24T14:49:34.371Z,155
2016-05-24T14:50:34.249Z,150
2016-05-24T14:51:34.439Z,140